createdAt,value
2022-11-17T00:05:35.277Z,100
2022-11-17T00:15:35.375Z,100
2022-11-17T00:25:36.053Z,100
2022-11-17T00:35:36.853Z,100
2022-11-17T00:45:36.982Z,100
2022-11-17T00:55:37.703Z,100
2022-11-17T01:05:38.151Z,100
2022-11-17T01:15:38.837Z,100
2022-11-17T01:25:39.760Z,100
2022-11-17T01:35:40.320Z,100
2022-11-17T01:45:40.577Z,100
2022-11-17T01:55:40.844Z,100
2022-11-17T02:25:42.119Z,100
2022-11-17T02:35:42.451Z,100
2022-11-17T02:45:43.320Z,100
2022-11-17T02:55:44.091Z,100
2022-11-17T03:05:44.224Z,100
2022-11-17T03:15:44.771Z,100
2022-11-17T03:25:45.143Z,100
2022-11-17T03:35:50.423Z,100
2022-11-17T03:45:46.161Z,100
2022-11-17T03:55:46.457Z,100
2022-11-17T04:15:47.246Z,100
2022-11-17T04:25:48.080Z,100
2022-11-17T04:35:48.717Z,100
2022-11-17T04:45:49.325Z,100
2022-11-17T04:55:49.566Z,100
2022-11-17T05:05:50.622Z,100
2022-11-17T05:15:50.888Z,100
2022-11-17T05:25:51.407Z,100
2022-11-17T05:35:51.690Z,100
2022-11-17T05:45:51.877Z,100
2022-11-17T05:55:52.196Z,100
2022-11-17T06:05:52.655Z,100
2022-11-17T06:15:53.378Z,100
2022-11-17T06:25:53.932Z,100
2022-11-17T06:35:54.100Z,100
2022-11-17T06:45:55.094Z,100
2022-11-17T06:55:55.884Z,100
2022-11-17T07:05:56.532Z,100
2022-11-17T07:15:57.217Z,100
2022-11-17T07:25:57.535Z,100
2022-11-17T07:35:58.493Z,100
2022-11-17T07:45:59.455Z,100
2022-11-17T07:55:59.642Z,100
2022-11-17T08:06:00.429Z,100
2022-11-17T08:16:00.897Z,100
2022-11-17T08:26:01.741Z,100
2022-11-17T08:36:02.131Z,100
2022-11-17T08:46:02.231Z,100
2022-11-17T08:56:02.746Z,100
2022-11-17T09:06:03.092Z,100
2022-11-17T09:16:03.323Z,100
2022-11-17T09:26:03.585Z,100
2022-11-17T09:36:03.837Z,100
2022-11-17T09:56:04.529Z,100
2022-11-17T10:06:10.222Z,100
2022-11-17T10:16:11.226Z,100
2022-11-17T10:26:11.417Z,100
2022-11-17T10:36:11.815Z,100
2022-11-17T10:46:11.940Z,100
2022-11-17T11:06:17.441Z,100
2022-11-17T11:16:13.695Z,100
2022-11-17T11:26:14.515Z,99
2022-11-17T11:36:15.341Z,97
2022-11-17T11:46:16.395Z,95
2022-11-17T11:56:16.714Z,92
2022-11-17T12:06:17.251Z,91
2022-11-17T12:16:17.558Z,90
2022-11-17T12:26:17.670Z,91
2022-11-17T12:36:18.582Z,91
2022-11-17T12:46:19.588Z,91
2022-11-17T12:56:20.464Z,90
2022-11-17T13:06:34.739Z,90
2022-11-17T13:16:21.619Z,91
2022-11-17T13:26:22.170Z,91
2022-11-17T13:36:22.727Z,91
2022-11-17T13:56:23.368Z,92
2022-11-17T14:06:23.794Z,93
2022-11-17T14:16:24.615Z,94
2022-11-17T14:26:25.124Z,95
2022-11-17T14:36:26.002Z,95
2022-11-17T14:46:26.478Z,96
2022-11-17T14:56:26.644Z,95
2022-11-17T15:06:27.445Z,95
2022-11-17T15:16:27.815Z,94
2022-11-17T15:26:28.840Z,93
2022-11-17T15:36:29.887Z,93
2022-11-17T15:46:30.055Z,93
2022-11-17T15:56:30.633Z,94
2022-11-17T16:06:31.709Z,95
2022-11-17T16:16:32.592Z,96
2022-11-17T16:26:32.695Z,96
2022-11-17T16:36:36.481Z,96
2022-11-17T16:46:33.724Z,97
2022-11-17T16:56:34.046Z,98
2022-11-17T17:06:34.422Z,98
2022-11-17T17:16:35.016Z,98
2022-11-17T17:26:35.363Z,97
2022-11-17T17:36:35.744Z,97
2022-11-17T17:46:36.398Z,97
2022-11-17T17:56:37.176Z,97
2022-11-17T18:06:37.917Z,97
2022-11-17T18:16:38.373Z,98
2022-11-17T18:26:39.145Z,98
2022-11-17T18:36:40.075Z,100
2022-11-17T18:46:40.906Z,100
2022-11-17T18:56:41.229Z,100
2022-11-17T19:06:41.483Z,100
2022-11-17T19:16:44.706Z,100
2022-11-17T19:36:43.954Z,100
2022-11-17T19:46:44.330Z,100
2022-11-17T19:56:45.313Z,100
2022-11-17T20:06:45.861Z,100
2022-11-17T20:16:46.195Z,100
2022-11-17T20:26:46.992Z,100
2022-11-17T20:36:47.585Z,100
2022-11-17T20:46:47.961Z,100
2022-11-17T20:56:48.224Z,100
2022-11-17T21:06:48.536Z,100
2022-11-17T21:16:49.571Z,100
2022-11-17T21:26:50.156Z,100
2022-11-17T21:36:50.997Z,100
2022-11-17T21:46:51.672Z,100
2022-11-17T21:56:52.726Z,100
2022-11-17T22:06:53.024Z,100
2022-11-17T22:16:53.096Z,100
2022-11-17T22:36:54.506Z,100
2022-11-17T22:46:55.454Z,100
2022-11-17T22:56:55.783Z,100
2022-11-17T23:06:56.838Z,100
2022-11-17T23:16:57.164Z,100
2022-11-17T23:26:57.706Z,100
2022-11-17T23:37:02.379Z,100
2022-11-17T23:46:58.920Z,100
2022-11-17T23:56:59.385Z,100
